sensor_id;sensor_type;location;lat;lon;timestamp;P1;durP1;ratioP1;P2;durP2;ratioP2
67696;SDS011;54486;51.442;6.778;2023-03-02T00:01:34;13.43;;;7.47;;
67696;SDS011;54486;51.442;6.778;2023-03-02T00:04:09;13.65;;;7.05;;
67696;SDS011;54486;51.442;6.778;2023-03-02T00:06:40;12.45;;;7.10;;
67696;SDS011;54486;51.442;6.778;2023-03-02T00:09:08;13.38;;;6.53;;
67696;SDS011;54486;51.442;6.778;2023-03-02T00:11:35;13.70;;;7.07;;
67696;SDS011;54486;51.442;6.778;2023-03-02T00:14:09;11.98;;;7.03;;
67696;SDS011;54486;51.442;6.778;2023-03-02T00:16:38;12.90;;;7.20;;
67696;SDS011;54486;51.442;6.778;2023-03-02T00:19:06;13.52;;;7.28;;
67696;SDS011;54486;51.442;6.778;2023-03-02T00:21:33;12.35;;;6.57;;
67696;SDS011;54486;51.442;6.778;2023-03-02T00:23:59;12.70;;;6.93;;
67696;SDS011;54486;51.442;6.778;2023-03-02T00:26:27;13.50;;;7.75;;
67696;SDS011;54486;51.442;6.778;2023-03-02T00:28:54;13.10;;;7.35;;
67696;SDS011;54486;51.442;6.778;2023-03-02T00:31:21;13.50;;;7.45;;
67696;SDS011;54486;51.442;6.778;2023-03-02T00:33:48;12.77;;;7.10;;
67696;SDS011;54486;51.442;6.778;2023-03-02T00:36:17;13.35;;;7.25;;
67696;SDS011;54486;51.442;6.778;2023-03-02T00:38:46;13.27;;;7.30;;
67696;SDS011;54486;51.442;6.778;2023-03-02T00:41:14;13.50;;;7.35;;
67696;SDS011;54486;51.442;6.778;2023-03-02T00:43:42;13.52;;;7.20;;
67696;SDS011;54486;51.442;6.778;2023-03-02T00:46:10;13.75;;;7.40;;
67696;SDS011;54486;51.442;6.778;2023-03-02T00:48:38;14.55;;;7.25;;
67696;SDS011;54486;51.442;6.778;2023-03-02T00:51:06;12.77;;;7.87;;
67696;SDS011;54486;51.442;6.778;2023-03-02T00:53:33;13.20;;;7.85;;
67696;SDS011;54486;51.442;6.778;2023-03-02T00:56:01;13.20;;;7.38;;
67696;SDS011;54486;51.442;6.778;2023-03-02T00:58:30;13.05;;;6.95;;
67696;SDS011;54486;51.442;6.778;2023-03-02T01:00:58;12.98;;;7.13;;
67696;SDS011;54486;51.442;6.778;2023-03-02T01:03:29;13.33;;;7.00;;
67696;SDS011;54486;51.442;6.778;2023-03-02T01:05:56;14.52;;;7.07;;
67696;SDS011;54486;51.442;6.778;2023-03-02T01:08:24;13.33;;;6.87;;
67696;SDS011;54486;51.442;6.778;2023-03-02T01:10:51;12.77;;;6.88;;
67696;SDS011;54486;51.442;6.778;2023-03-02T01:13:20;14.03;;;7.23;;
67696;SDS011;54486;51.442;6.778;2023-03-02T01:15:47;14.90;;;7.50;;
67696;SDS011;54486;51.442;6.778;2023-03-02T01:18:15;13.23;;;6.43;;
67696;SDS011;54486;51.442;6.778;2023-03-02T01:20:41;12.80;;;6.65;;
67696;SDS011;54486;51.442;6.778;2023-03-02T01:23:09;12.95;;;6.95;;
67696;SDS011;54486;51.442;6.778;2023-03-02T01:25:36;14.63;;;7.72;;
67696;SDS011;54486;51.442;6.778;2023-03-02T01:28:04;13.90;;;7.00;;
67696;SDS011;54486;51.442;6.778;2023-03-02T01:30:31;13.40;;;6.72;;
67696;SDS011;54486;51.442;6.778;2023-03-02T01:32:58;13.10;;;7.15;;
67696;SDS011;54486;51.442;6.778;2023-03-02T01:35:25;13.40;;;6.90;;
67696;SDS011;54486;51.442;6.778;2023-03-02T01:37:52;13.73;;;7.20;;
67696;SDS011;54486;51.442;6.778;2023-03-02T01:40:20;13.73;;;7.25;;
67696;SDS011;54486;51.442;6.778;2023-03-02T01:42:53;13.27;;;7.38;;
67696;SDS011;54486;51.442;6.778;2023-03-02T01:48:20;12.93;;;7.35;;
67696;SDS011;54486;51.442;6.778;2023-03-02T01:51:13;12.98;;;7.75;;
67696;SDS011;54486;51.442;6.778;2023-03-02T01:53:43;14.43;;;8.48;;
67696;SDS011;54486;51.442;6.778;2023-03-02T01:56:17;14.23;;;7.68;;
67696;SDS011;54486;51.442;6.778;2023-03-02T01:58:50;13.73;;;7.97;;
67696;SDS011;54486;51.442;6.778;2023-03-02T02:01:22;14.77;;;8.20;;
67696;SDS011;54486;51.442;6.778;2023-03-02T02:03:49;13.65;;;7.97;;
67696;SDS011;54486;51.442;6.778;2023-03-02T03:54:02;16.38;;;8.18;;
67696;SDS011;54486;51.442;6.778;2023-03-02T03:56:34;14.50;;;7.55;;
67696;SDS011;54486;51.442;6.778;2023-03-02T03:59:05;15.55;;;8.90;;
67696;SDS011;54486;51.442;6.778;2023-03-02T04:01:44;14.45;;;8.02;;
67696;SDS011;54486;51.442;6.778;2023-03-02T04:04:15;14.45;;;7.47;;
67696;SDS011;54486;51.442;6.778;2023-03-02T04:06:45;16.25;;;8.88;;
67696;SDS011;54486;51.442;6.778;2023-03-02T04:09:13;13.80;;;7.82;;
67696;SDS011;54486;51.442;6.778;2023-03-02T04:11:44;14.53;;;7.77;;
67696;SDS011;54486;51.442;6.778;2023-03-02T04:14:12;14.60;;;8.00;;
67696;SDS011;54486;51.442;6.778;2023-03-02T04:16:41;15.10;;;7.80;;
67696;SDS011;54486;51.442;6.778;2023-03-02T04:19:08;14.10;;;7.55;;
67696;SDS011;54486;51.442;6.778;2023-03-02T04:21:38;13.48;;;7.22;;
67696;SDS011;54486;51.442;6.778;2023-03-02T15:17:11;11.93;;;5.87;;
67696;SDS011;54486;51.442;6.778;2023-03-02T15:19:37;13.30;;;5.88;;
67696;SDS011;54486;51.442;6.778;2023-03-02T15:22:05;11.00;;;5.47;;
67696;SDS011;54486;51.442;6.778;2023-03-02T15:24:32;10.90;;;5.83;;
67696;SDS011;54486;51.442;6.778;2023-03-02T15:27:00;12.90;;;5.75;;
67696;SDS011;54486;51.442;6.778;2023-03-02T15:29:27;12.63;;;6.22;;
67696;SDS011;54486;51.442;6.778;2023-03-02T15:31:54;10.13;;;5.30;;
67696;SDS011;54486;51.442;6.778;2023-03-02T15:34:23;12.50;;;5.80;;
67696;SDS011;54486;51.442;6.778;2023-03-02T15:36:50;11.17;;;5.70;;
67696;SDS011;54486;51.442;6.778;2023-03-02T15:39:18;13.05;;;5.70;;
67696;SDS011;54486;51.442;6.778;2023-03-02T15:41:45;11.80;;;6.32;;
67696;SDS011;54486;51.442;6.778;2023-03-02T15:44:17;11.35;;;5.65;;
67696;SDS011;54486;51.442;6.778;2023-03-02T15:46:53;12.37;;;6.00;;
67696;SDS011;54486;51.442;6.778;2023-03-02T15:49:22;11.82;;;6.00;;
67696;SDS011;54486;51.442;6.778;2023-03-02T15:51:50;13.07;;;5.85;;
67696;SDS011;54486;51.442;6.778;2023-03-02T15:54:19;12.43;;;5.97;;
67696;SDS011;54486;51.442;6.778;2023-03-02T15:56:47;12.23;;;5.75;;
67696;SDS011;54486;51.442;6.778;2023-03-02T15:59:19;11.50;;;5.83;;
67696;SDS011;54486;51.442;6.778;2023-03-02T16:01:48;12.18;;;6.20;;
67696;SDS011;54486;51.442;6.778;2023-03-02T16:04:15;13.45;;;6.35;;
67696;SDS011;54486;51.442;6.778;2023-03-02T16:06:43;12.27;;;5.90;;
67696;SDS011;54486;51.442;6.778;2023-03-02T16:09:10;11.32;;;5.75;;
67696;SDS011;54486;51.442;6.778;2023-03-02T16:11:38;13.20;;;6.17;;
67696;SDS011;54486;51.442;6.778;2023-03-02T16:14:05;12.80;;;6.07;;
67696;SDS011;54486;51.442;6.778;2023-03-02T16:16:32;12.02;;;6.45;;
67696;SDS011;54486;51.442;6.778;2023-03-02T16:18:59;13.02;;;7.07;;
67696;SDS011;54486;51.442;6.778;2023-03-02T16:21:27;13.35;;;7.22;;
67696;SDS011;54486;51.442;6.778;2023-03-02T16:23:54;14.40;;;7.43;;
67696;SDS011;54486;51.442;6.778;2023-03-02T16:26:31;13.38;;;6.32;;
67696;SDS011;54486;51.442;6.778;2023-03-02T16:28:59;13.02;;;6.90;;
67696;SDS011;54486;51.442;6.778;2023-03-02T16:31:27;13.82;;;7.00;;
67696;SDS011;54486;51.442;6.778;2023-03-02T16:33:58;13.60;;;6.33;;
67696;SDS011;54486;51.442;6.778;2023-03-02T16:36:29;13.07;;;6.55;;
67696;SDS011;54486;51.442;6.778;2023-03-02T16:38:56;13.03;;;6.03;;
67696;SDS011;54486;51.442;6.778;2023-03-02T16:41:23;11.93;;;6.25;;
67696;SDS011;54486;51.442;6.778;2023-03-02T16:43:52;11.67;;;6.03;;
67696;SDS011;54486;51.442;6.778;2023-03-02T16:46:21;12.65;;;6.38;;
67696;SDS011;54486;51.442;6.778;2023-03-02T16:48:50;12.53;;;6.20;;
67696;SDS011;54486;51.442;6.778;2023-03-02T16:51:19;13.15;;;6.25;;
67696;SDS011;54486;51.442;6.778;2023-03-02T16:53:46;12.40;;;6.38;;
67696;SDS011;54486;51.442;6.778;2023-03-02T16:56:13;12.57;;;6.18;;
67696;SDS011;54486;51.442;6.778;2023-03-02T16:58:41;12.95;;;6.53;;
67696;SDS011;54486;51.442;6.778;2023-03-02T17:01:10;14.07;;;6.43;;
67696;SDS011;54486;51.442;6.778;2023-03-02T17:03:39;12.40;;;6.68;;
67696;SDS011;54486;51.442;6.778;2023-03-02T17:06:08;12.93;;;6.25;;
67696;SDS011;54486;51.442;6.778;2023-03-02T17:08:37;12.48;;;6.47;;
67696;SDS011;54486;51.442;6.778;2023-03-02T17:11:04;13.57;;;6.43;;
67696;SDS011;54486;51.442;6.778;2023-03-02T17:13:32;13.40;;;5.78;;
67696;SDS011;54486;51.442;6.778;2023-03-02T17:16:00;13.15;;;6.13;;
67696;SDS011;54486;51.442;6.778;2023-03-02T17:18:28;13.00;;;6.35;;
67696;SDS011;54486;51.442;6.778;2023-03-02T17:20:55;12.88;;;6.35;;
67696;SDS011;54486;51.442;6.778;2023-03-02T17:23:24;12.35;;;6.25;;
67696;SDS011;54486;51.442;6.778;2023-03-02T17:25:53;15.52;;;7.40;;
67696;SDS011;54486;51.442;6.778;2023-03-02T17:28:20;14.70;;;7.88;;
67696;SDS011;54486;51.442;6.778;2023-03-02T17:30:48;14.05;;;7.10;;
67696;SDS011;54486;51.442;6.778;2023-03-02T17:33:15;14.77;;;7.05;;
67696;SDS011;54486;51.442;6.778;2023-03-02T17:35:43;13.15;;;6.78;;
67696;SDS011;54486;51.442;6.778;2023-03-02T17:38:12;16.13;;;7.30;;
67696;SDS011;54486;51.442;6.778;2023-03-02T17:40:40;17.90;;;8.75;;
67696;SDS011;54486;51.442;6.778;2023-03-02T17:43:08;16.38;;;8.15;;
67696;SDS011;54486;51.442;6.778;2023-03-02T17:45:35;16.65;;;7.68;;
67696;SDS011;54486;51.442;6.778;2023-03-02T17:48:02;17.00;;;8.35;;
67696;SDS011;54486;51.442;6.778;2023-03-02T17:50:31;19.20;;;9.80;;
67696;SDS011;54486;51.442;6.778;2023-03-02T17:52:58;17.48;;;8.50;;
67696;SDS011;54486;51.442;6.778;2023-03-02T17:55:25;20.65;;;10.52;;
67696;SDS011;54486;51.442;6.778;2023-03-02T17:57:53;18.55;;;10.10;;
67696;SDS011;54486;51.442;6.778;2023-03-02T18:00:21;20.42;;;10.52;;
67696;SDS011;54486;51.442;6.778;2023-03-02T18:02:49;18.05;;;9.70;;
67696;SDS011;54486;51.442;6.778;2023-03-02T18:05:16;18.98;;;9.40;;
67696;SDS011;54486;51.442;6.778;2023-03-02T18:07:44;19.73;;;9.77;;
67696;SDS011;54486;51.442;6.778;2023-03-02T18:10:11;20.10;;;10.45;;
67696;SDS011;54486;51.442;6.778;2023-03-02T18:12:39;19.95;;;10.80;;
67696;SDS011;54486;51.442;6.778;2023-03-02T18:15:06;20.20;;;10.30;;
67696;SDS011;54486;51.442;6.778;2023-03-02T18:17:36;20.95;;;11.13;;
67696;SDS011;54486;51.442;6.778;2023-03-02T18:20:03;19.63;;;10.43;;
67696;SDS011;54486;51.442;6.778;2023-03-02T18:22:31;20.70;;;10.83;;
67696;SDS011;54486;51.442;6.778;2023-03-02T18:24:59;20.47;;;10.03;;
67696;SDS011;54486;51.442;6.778;2023-03-02T18:27:26;19.50;;;10.25;;
67696;SDS011;54486;51.442;6.778;2023-03-02T18:29:53;19.15;;;10.43;;
67696;SDS011;54486;51.442;6.778;2023-03-02T18:32:21;20.20;;;10.10;;
67696;SDS011;54486;51.442;6.778;2023-03-02T18:34:48;19.15;;;9.48;;
67696;SDS011;54486;51.442;6.778;2023-03-02T18:37:15;20.20;;;10.18;;
67696;SDS011;54486;51.442;6.778;2023-03-02T18:39:42;21.65;;;10.35;;
67696;SDS011;54486;51.442;6.778;2023-03-02T18:42:11;20.63;;;10.82;;
67696;SDS011;54486;51.442;6.778;2023-03-02T18:44:38;19.77;;;10.48;;
67696;SDS011;54486;51.442;6.778;2023-03-02T18:47:09;20.90;;;10.47;;
67696;SDS011;54486;51.442;6.778;2023-03-02T18:49:35;21.17;;;10.88;;
67696;SDS011;54486;51.442;6.778;2023-03-02T18:52:04;21.48;;;11.65;;
67696;SDS011;54486;51.442;6.778;2023-03-02T18:54:32;22.33;;;12.07;;
67696;SDS011;54486;51.442;6.778;2023-03-02T18:56:59;24.02;;;12.35;;
67696;SDS011;54486;51.442;6.778;2023-03-02T18:59:27;22.10;;;11.38;;
67696;SDS011;54486;51.442;6.778;2023-03-02T19:01:54;21.52;;;11.15;;
67696;SDS011;54486;51.442;6.778;2023-03-02T19:04:21;18.85;;;10.15;;
67696;SDS011;54486;51.442;6.778;2023-03-02T19:06:52;19.35;;;10.38;;
67696;SDS011;54486;51.442;6.778;2023-03-02T19:09:22;20.03;;;9.73;;
67696;SDS011;54486;51.442;6.778;2023-03-02T19:11:49;21.03;;;10.80;;
67696;SDS011;54486;51.442;6.778;2023-03-02T19:14:16;20.02;;;10.75;;
67696;SDS011;54486;51.442;6.778;2023-03-02T19:16:45;21.20;;;10.17;;
67696;SDS011;54486;51.442;6.778;2023-03-02T19:19:12;20.93;;;10.40;;
67696;SDS011;54486;51.442;6.778;2023-03-02T19:21:45;20.15;;;10.77;;
67696;SDS011;54486;51.442;6.778;2023-03-02T19:24:23;21.35;;;10.82;;
67696;SDS011;54486;51.442;6.778;2023-03-02T19:26:51;20.17;;;10.67;;
67696;SDS011;54486;51.442;6.778;2023-03-02T19:29:18;20.13;;;10.13;;
67696;SDS011;54486;51.442;6.778;2023-03-02T19:31:48;21.03;;;10.97;;
67696;SDS011;54486;51.442;6.778;2023-03-02T19:34:15;20.08;;;10.52;;
67696;SDS011;54486;51.442;6.778;2023-03-02T19:36:43;20.75;;;10.98;;
67696;SDS011;54486;51.442;6.778;2023-03-02T19:39:10;20.50;;;10.93;;
67696;SDS011;54486;51.442;6.778;2023-03-02T19:41:37;20.23;;;10.95;;
67696;SDS011;54486;51.442;6.778;2023-03-02T19:44:04;20.53;;;11.20;;
67696;SDS011;54486;51.442;6.778;2023-03-02T19:46:33;20.73;;;10.57;;
67696;SDS011;54486;51.442;6.778;2023-03-02T19:49:00;21.38;;;11.02;;
67696;SDS011;54486;51.442;6.778;2023-03-02T19:51:27;21.98;;;11.30;;
67696;SDS011;54486;51.442;6.778;2023-03-02T19:53:55;23.27;;;11.98;;
67696;SDS011;54486;51.442;6.778;2023-03-02T19:56:23;24.23;;;12.25;;
67696;SDS011;54486;51.442;6.778;2023-03-02T19:58:56;20.80;;;11.57;;
67696;SDS011;54486;51.442;6.778;2023-03-02T20:01:23;22.40;;;10.95;;
67696;SDS011;54486;51.442;6.778;2023-03-02T20:03:52;22.13;;;11.50;;
67696;SDS011;54486;51.442;6.778;2023-03-02T20:06:22;23.50;;;12.15;;
67696;SDS011;54486;51.442;6.778;2023-03-02T20:08:51;23.88;;;12.15;;
67696;SDS011;54486;51.442;6.778;2023-03-02T20:11:18;23.40;;;12.20;;
67696;SDS011;54486;51.442;6.778;2023-03-02T20:13:45;24.40;;;12.63;;
67696;SDS011;54486;51.442;6.778;2023-03-02T20:16:14;24.55;;;11.95;;
67696;SDS011;54486;51.442;6.778;2023-03-02T20:18:41;23.92;;;12.27;;
67696;SDS011;54486;51.442;6.778;2023-03-02T20:21:08;25.33;;;12.82;;
67696;SDS011;54486;51.442;6.778;2023-03-02T20:23:35;24.85;;;13.23;;
67696;SDS011;54486;51.442;6.778;2023-03-02T20:26:03;24.42;;;12.88;;
67696;SDS011;54486;51.442;6.778;2023-03-02T20:28:33;27.15;;;12.88;;
67696;SDS011;54486;51.442;6.778;2023-03-02T20:31:03;25.05;;;12.80;;
67696;SDS011;54486;51.442;6.778;2023-03-02T20:33:36;26.00;;;13.95;;
67696;SDS011;54486;51.442;6.778;2023-03-02T20:36:06;26.52;;;13.75;;
67696;SDS011;54486;51.442;6.778;2023-03-02T20:38:35;24.73;;;13.63;;
67696;SDS011;54486;51.442;6.778;2023-03-02T20:41:06;27.17;;;13.50;;
67696;SDS011;54486;51.442;6.778;2023-03-02T20:43:36;25.85;;;13.45;;
67696;SDS011;54486;51.442;6.778;2023-03-02T20:46:04;25.95;;;13.82;;
67696;SDS011;54486;51.442;6.778;2023-03-02T20:48:36;26.58;;;13.57;;
67696;SDS011;54486;51.442;6.778;2023-03-02T20:51:03;27.42;;;14.77;;
67696;SDS011;54486;51.442;6.778;2023-03-02T20:53:30;27.40;;;14.40;;
67696;SDS011;54486;51.442;6.778;2023-03-02T20:55:58;28.17;;;15.10;;
67696;SDS011;54486;51.442;6.778;2023-03-02T20:58:25;28.35;;;14.98;;
67696;SDS011;54486;51.442;6.778;2023-03-02T21:00:52;28.88;;;14.15;;
67696;SDS011;54486;51.442;6.778;2023-03-02T21:03:22;30.75;;;15.68;;
67696;SDS011;54486;51.442;6.778;2023-03-02T21:05:49;29.55;;;15.45;;
67696;SDS011;54486;51.442;6.778;2023-03-02T21:08:16;29.63;;;15.88;;
67696;SDS011;54486;51.442;6.778;2023-03-02T21:10:43;30.27;;;15.40;;
67696;SDS011;54486;51.442;6.778;2023-03-02T21:13:13;28.55;;;15.38;;
67696;SDS011;54486;51.442;6.778;2023-03-02T21:15:41;29.27;;;15.13;;
67696;SDS011;54486;51.442;6.778;2023-03-02T21:18:09;30.67;;;15.57;;
67696;SDS011;54486;51.442;6.778;2023-03-02T21:20:36;28.30;;;15.63;;
67696;SDS011;54486;51.442;6.778;2023-03-02T21:23:04;30.40;;;15.32;;
67696;SDS011;54486;51.442;6.778;2023-03-02T21:25:32;30.25;;;15.80;;
67696;SDS011;54486;51.442;6.778;2023-03-02T21:27:59;33.67;;;15.90;;
67696;SDS011;54486;51.442;6.778;2023-03-02T21:30:27;34.20;;;17.20;;
67696;SDS011;54486;51.442;6.778;2023-03-02T21:32:56;33.33;;;17.30;;
67696;SDS011;54486;51.442;6.778;2023-03-02T21:35:23;38.45;;;17.38;;
67696;SDS011;54486;51.442;6.778;2023-03-02T21:37:52;32.85;;;17.13;;
67696;SDS011;54486;51.442;6.778;2023-03-02T21:40:25;33.10;;;17.48;;
67696;SDS011;54486;51.442;6.778;2023-03-02T21:42:57;36.80;;;18.38;;
67696;SDS011;54486;51.442;6.778;2023-03-02T21:45:24;36.05;;;18.15;;
67696;SDS011;54486;51.442;6.778;2023-03-02T21:47:51;34.40;;;16.95;;
67696;SDS011;54486;51.442;6.778;2023-03-02T21:50:19;36.60;;;17.75;;
67696;SDS011;54486;51.442;6.778;2023-03-02T21:52:51;36.03;;;17.42;;
67696;SDS011;54486;51.442;6.778;2023-03-02T21:55:19;38.90;;;19.50;;
67696;SDS011;54486;51.442;6.778;2023-03-02T21:57:46;36.17;;;18.43;;
67696;SDS011;54486;51.442;6.778;2023-03-02T22:00:18;35.93;;;17.87;;
67696;SDS011;54486;51.442;6.778;2023-03-02T22:02:48;36.17;;;18.13;;
67696;SDS011;54486;51.442;6.778;2023-03-02T22:05:16;35.57;;;18.07;;
67696;SDS011;54486;51.442;6.778;2023-03-02T22:07:44;38.28;;;18.20;;
67696;SDS011;54486;51.442;6.778;2023-03-02T22:13:23;38.67;;;19.30;;
67696;SDS011;54486;51.442;6.778;2023-03-02T22:18:30;47.13;;;20.90;;
67696;SDS011;54486;51.442;6.778;2023-03-02T22:20:58;46.75;;;21.85;;
67696;SDS011;54486;51.442;6.778;2023-03-02T22:23:27;54.47;;;23.95;;
67696;SDS011;54486;51.442;6.778;2023-03-02T22:26:11;54.08;;;24.60;;
67696;SDS011;54486;51.442;6.778;2023-03-02T22:28:42;55.17;;;25.20;;
67696;SDS011;54486;51.442;6.778;2023-03-02T22:31:14;54.65;;;25.92;;
67696;SDS011;54486;51.442;6.778;2023-03-02T22:33:45;53.30;;;26.55;;
67696;SDS011;54486;51.442;6.778;2023-03-02T22:36:22;59.80;;;27.35;;
67696;SDS011;54486;51.442;6.778;2023-03-02T22:38:50;54.92;;;26.48;;
67696;SDS011;54486;51.442;6.778;2023-03-02T22:41:21;60.30;;;27.65;;
67696;SDS011;54486;51.442;6.778;2023-03-02T22:43:48;65.00;;;28.88;;
67696;SDS011;54486;51.442;6.778;2023-03-02T22:46:16;65.95;;;29.65;;
67696;SDS011;54486;51.442;6.778;2023-03-02T22:48:49;70.38;;;31.13;;
67696;SDS011;54486;51.442;6.778;2023-03-02T22:51:25;68.90;;;30.13;;
67696;SDS011;54486;51.442;6.778;2023-03-02T22:53:57;72.75;;;29.55;;
67696;SDS011;54486;51.442;6.778;2023-03-02T22:58:55;74.18;;;31.85;;
67696;SDS011;54486;51.442;6.778;2023-03-02T23:04:13;68.20;;;31.13;;
67696;SDS011;54486;51.442;6.778;2023-03-02T23:06:44;64.78;;;29.25;;
67696;SDS011;54486;51.442;6.778;2023-03-02T23:09:15;64.15;;;28.25;;
67696;SDS011;54486;51.442;6.778;2023-03-02T23:11:48;65.47;;;29.50;;
67696;SDS011;54486;51.442;6.778;2023-03-02T23:14:38;68.82;;;31.40;;
67696;SDS011;54486;51.442;6.778;2023-03-02T23:17:13;67.88;;;30.75;;
67696;SDS011;54486;51.442;6.778;2023-03-02T23:19:44;71.57;;;31.92;;
67696;SDS011;54486;51.442;6.778;2023-03-02T23:22:11;78.18;;;32.08;;
67696;SDS011;54486;51.442;6.778;2023-03-02T23:24:39;75.18;;;32.95;;
67696;SDS011;54486;51.442;6.778;2023-03-02T23:27:06;74.32;;;31.83;;
67696;SDS011;54486;51.442;6.778;2023-03-02T23:29:35;72.30;;;32.23;;
67696;SDS011;54486;51.442;6.778;2023-03-02T23:32:03;70.88;;;31.17;;
67696;SDS011;54486;51.442;6.778;2023-03-02T23:34:31;73.05;;;31.67;;
67696;SDS011;54486;51.442;6.778;2023-03-02T23:36:58;70.05;;;31.25;;
67696;SDS011;54486;51.442;6.778;2023-03-02T23:39:25;70.25;;;30.30;;
67696;SDS011;54486;51.442;6.778;2023-03-02T23:41:52;73.68;;;32.20;;
67696;SDS011;54486;51.442;6.778;2023-03-02T23:44:20;70.57;;;30.30;;
67696;SDS011;54486;51.442;6.778;2023-03-02T23:46:47;69.85;;;30.75;;
67696;SDS011;54486;51.442;6.778;2023-03-02T23:49:15;69.05;;;28.70;;
67696;SDS011;54486;51.442;6.778;2023-03-02T23:51:43;63.80;;;30.25;;
67696;SDS011;54486;51.442;6.778;2023-03-02T23:54:11;68.15;;;29.17;;
67696;SDS011;54486;51.442;6.778;2023-03-02T23:56:38;59.88;;;24.88;;
67696;SDS011;54486;51.442;6.778;2023-03-02T23:59:05;58.08;;;25.25;;
